Time;durP1;ratioP1;P1;durP2;ratioP2;P2;SDS_P1;SDS_P2;PMS_P1;PMS_P2;Temp;Humidity;BMP_temperature;BMP_pressure;BME280_temperature;BME280_humidity;BME280_pressure;Samples;Min_cycle;Max_cycle;Signal;HPM_P1;HPM_P2
2022/06/03 00:02:13;;;;;;;10.88;5.47;;;;;;;;;;5076899;28;20509;-72
2022/06/03 00:04:43;;;;;;;11.10;5.75;;;;;;;;;;5076722;28;20128;-72
2022/06/03 00:07:18;;;;;;;11.30;5.32;;;;;;;;;;5076850;28;20051;-72
2022/06/03 00:10:01;;;;;;;10.90;4.93;;;;;;;;;;5076966;28;20513;-72
2022/06/03 00:12:43;;;;;;;13.10;5.57;;;;;;;;;;5076420;28;20075;-72
2022/06/03 00:15:19;;;;;;;11.18;5.35;;;;;;;;;;5076339;28;20537;-73
2022/06/03 00:17:48;;;;;;;10.40;5.95;;;;;;;;;;5076610;28;20113;-72
2022/06/03 00:20:33;;;;;;;9.45;5.68;;;;;;;;;;5076166;28;20048;-72
2022/06/03 00:23:08;;;;;;;8.98;5.25;;;;;;;;;;5076165;28;20040;-72
2022/06/03 00:25:51;;;;;;;8.63;5.00;;;;;;;;;;5076652;28;20063;-72
2022/06/03 00:28:39;;;;;;;8.40;4.97;;;;;;;;;;5076419;28;20127;-72
2022/06/03 00:31:24;;;;;;;10.32;5.05;;;;;;;;;;5076505;28;20040;-72
2022/06/03 00:34:15;;;;;;;7.22;4.70;;;;;;;;;;5075942;28;20059;-72
2022/06/03 00:36:50;;;;;;;10.38;5.13;;;;;;;;;;5076785;28;20037;-72
2022/06/03 00:39:19;;;;;;;9.85;4.82;;;;;;;;;;5075707;28;20095;-72
2022/06/03 00:42:06;;;;;;;15.02;5.28;;;;;;;;;;5075684;28;20052;-72
2022/06/03 00:44:44;;;;;;;9.40;5.38;;;;;;;;;;5075929;28;20036;-72
2022/06/03 00:47:37;;;;;;;13.90;5.30;;;;;;;;;;5075659;28;20049;-72
2022/06/03 00:50:25;;;;;;;9.70;4.60;;;;;;;;;;5076450;28;20044;-72
2022/06/03 00:52:57;;;;;;;15.68;5.15;;;;;;;;;;5075696;28;20123;-72
2022/06/03 00:55:36;;;;;;;16.15;5.82;;;;;;;;;;5075662;28;20098;-72
2022/06/03 00:58:20;;;;;;;8.18;4.80;;;;;;;;;;5075985;28;20482;-72
2022/06/03 01:01:01;;;;;;;13.70;5.25;;;;;;;;;;5075572;28;20055;-72
2022/06/03 01:03:46;;;;;;;11.07;4.82;;;;;;;;;;5075378;28;20043;-72
2022/06/03 01:06:19;;;;;;;12.80;5.45;;;;;;;;;;5075887;28;20123;-72
2022/06/03 01:08:54;;;;;;;10.23;5.25;;;;;;;;;;5075438;28;20098;-72
2022/06/03 01:11:27;;;;;;;10.00;5.30;;;;;;;;;;5075373;28;20064;-72
2022/06/03 01:13:53;;;;;;;14.45;5.82;;;;;;;;;;5074715;28;20115;-72
2022/06/03 01:16:25;;;;;;;8.13;4.60;;;;;;;;;;5075464;28;20052;-72
2022/06/03 01:19:07;;;;;;;8.73;5.03;;;;;;;;;;5075684;28;20050;-72
2022/06/03 01:21:43;;;;;;;11.20;5.22;;;;;;;;;;5075771;28;20048;-72
2022/06/03 01:24:18;;;;;;;10.18;4.85;;;;;;;;;;5075243;28;20052;-72
2022/06/03 01:27:13;;;;;;;9.27;4.68;;;;;;;;;;5076017;28;20044;-72
2022/06/03 01:29:58;;;;;;;7.88;4.53;;;;;;;;;;5021190;28;20076;-73
2022/06/03 01:32:47;;;;;;;8.38;4.72;;;;;;;;;;5075495;28;20058;-72
2022/06/03 01:35:21;;;;;;;11.48;4.95;;;;;;;;;;5067367;28;20044;-72
2022/06/03 01:37:56;;;;;;;10.40;4.68;;;;;;;;;;5075223;28;20055;-72
2022/06/03 01:40:29;;;;;;;11.55;4.95;;;;;;;;;;5075674;28;20044;-72
2022/06/03 01:43:07;;;;;;;8.23;4.60;;;;;;;;;;5074989;28;20079;-72
2022/06/03 01:45:54;;;;;;;8.68;4.57;;;;;;;;;;5074755;28;20518;-72
2022/06/03 01:48:26;;;;;;;7.55;4.22;;;;;;;;;;5074757;28;20036;-72
2022/06/03 01:51:01;;;;;;;7.88;4.90;;;;;;;;;;5074985;28;20040;-72
2022/06/03 01:53:46;;;;;;;8.88;4.72;;;;;;;;;;5074923;28;20082;-72
2022/06/03 01:56:18;;;;;;;9.60;5.00;;;;;;;;;;5075663;28;20033;-72
2022/06/03 01:58:44;;;;;;;8.80;5.13;;;;;;;;;;5074521;28;20094;-72
2022/06/03 02:01:29;;;;;;;9.05;5.03;;;;;;;;;;5075348;28;20036;-72
2022/06/03 02:04:04;;;;;;;11.23;4.72;;;;;;;;;;5074651;28;20033;-72
2022/06/03 02:06:48;;;;;;;9.40;4.90;;;;;;;;;;5075190;28;20048;-72
2022/06/03 02:09:32;;;;;;;9.13;4.85;;;;;;;;;;5074800;28;20059;-72
2022/06/03 02:11:58;;;;;;;11.07;4.53;;;;;;;;;;5074758;28;20471;-72
2022/06/03 02:14:42;;;;;;;9.90;4.78;;;;;;;;;;5074807;28;20043;-72
2022/06/03 02:17:08;;;;;;;8.98;4.93;;;;;;;;;;5074409;28;20072;-72
2022/06/03 02:19:41;;;;;;;9.10;4.72;;;;;;;;;;5074582;28;20044;-72
2022/06/03 02:22:10;;;;;;;8.82;4.57;;;;;;;;;;5075167;28;20127;-72
2022/06/03 02:24:55;;;;;;;8.18;4.20;;;;;;;;;;5074667;28;20497;-72
2022/06/03 02:27:24;;;;;;;10.18;4.40;;;;;;;;;;5074944;28;20044;-72
2022/06/03 02:32:52;;;;;;;11.20;5.13;;;;;;;;;;5073913;28;20536;-72
2022/06/03 02:35:52;;;;;;;8.00;4.78;;;;;;;;;;5077859;28;20044;-72
2022/06/03 02:38:27;;;;;;;9.95;4.80;;;;;;;;;;5045205;28;20060;-72
2022/06/03 02:41:12;;;;;;;10.57;4.68;;;;;;;;;;5078902;28;20123;-72
2022/06/03 02:43:41;;;;;;;13.23;4.85;;;;;;;;;;5078351;28;20036;-72
2022/06/03 02:46:16;;;;;;;8.05;4.38;;;;;;;;;;5078218;28;20123;-72
2022/06/03 02:49:01;;;;;;;11.18;6.20;;;;;;;;;;5078245;28;20044;-72
2022/06/03 02:51:39;;;;;;;9.38;4.97;;;;;;;;;;5060276;28;20573;-72
2022/06/03 02:54:09;;;;;;;11.30;4.72;;;;;;;;;;5078004;28;20036;-72
2022/06/03 02:56:53;;;;;;;10.75;4.82;;;;;;;;;;5078426;28;20097;-72
2022/06/03 02:59:42;;;;;;;12.65;5.32;;;;;;;;;;5078339;28;20072;-72
2022/06/03 03:02:17;;;;;;;11.73;4.82;;;;;;;;;;5078437;28;20052;-72
2022/06/03 03:05:01;;;;;;;9.95;5.13;;;;;;;;;;5077884;28;20044;-72
2022/06/03 03:07:28;;;;;;;8.73;4.60;;;;;;;;;;5078249;28;20044;-72
2022/06/03 03:09:56;;;;;;;10.52;4.70;;;;;;;;;;5078043;28;20067;-72
2022/06/03 03:12:22;;;;;;;8.32;4.70;;;;;;;;;;5077647;28;20040;-72
2022/06/03 03:15:00;;;;;;;8.80;4.82;;;;;;;;;;5078132;28;20068;-73
2022/06/03 03:17:39;;;;;;;6.55;4.35;;;;;;;;;;5077788;28;20048;-72
2022/06/03 03:20:05;;;;;;;8.48;4.82;;;;;;;;;;5077541;28;20055;-72
2022/06/03 03:22:34;;;;;;;11.90;4.85;;;;;;;;;;5077187;28;20147;-72
2022/06/03 03:25:18;;;;;;;12.48;4.65;;;;;;;;;;5077473;28;20044;-72
2022/06/03 03:27:47;;;;;;;10.00;4.78;;;;;;;;;;5077041;28;20082;-72
2022/06/03 03:30:20;;;;;;;8.80;4.93;;;;;;;;;;5077135;28;20040;-72
2022/06/03 03:33:06;;;;;;;9.85;4.53;;;;;;;;;;5077434;28;20074;-72
2022/06/03 03:35:48;;;;;;;10.30;4.78;;;;;;;;;;5077033;28;20040;-72
2022/06/03 03:38:32;;;;;;;8.60;4.38;;;;;;;;;;5077339;28;20040;-72
2022/06/03 03:41:02;;;;;;;7.93;4.50;;;;;;;;;;5059317;28;20399;-72
2022/06/03 03:43:28;;;;;;;9.82;4.80;;;;;;;;;;5076830;28;20036;-72
2022/06/03 03:45:54;;;;;;;10.00;4.80;;;;;;;;;;5076047;28;20056;-72
2022/06/03 03:48:23;;;;;;;8.07;4.15;;;;;;;;;;5076713;28;20098;-72
2022/06/03 03:50:49;;;;;;;6.35;4.15;;;;;;;;;;5076757;28;20570;-72
2022/06/03 03:53:15;;;;;;;9.23;4.30;;;;;;;;;;5076971;28;20048;-72
2022/06/03 03:55:48;;;;;;;7.55;4.50;;;;;;;;;;5076965;28;20040;-72
2022/06/03 03:58:25;;;;;;;9.90;4.80;;;;;;;;;;5076692;28;20052;-72
2022/06/03 04:01:01;;;;;;;9.77;4.40;;;;;;;;;;5075193;28;20048;-72
2022/06/03 04:03:38;;;;;;;7.60;4.28;;;;;;;;;;5075031;28;20044;-72
2022/06/03 04:06:23;;;;;;;10.70;4.45;;;;;;;;;;5074706;28;20141;-72
2022/06/03 04:09:08;;;;;;;7.47;4.18;;;;;;;;;;5073827;28;20032;-72
2022/06/03 04:11:52;;;;;;;9.43;4.72;;;;;;;;;;5069511;28;20044;-72
2022/06/03 04:14:53;;;;;;;9.35;4.35;;;;;;;;;;5075536;28;20036;-72
2022/06/03 04:17:38;;;;;;;8.88;4.53;;;;;;;;;;5075457;28;20051;-72
2022/06/03 04:20:22;;;;;;;6.82;4.05;;;;;;;;;;5074780;28;20056;-72
2022/06/03 04:23:07;;;;;;;8.70;4.45;;;;;;;;;;5075778;28;20063;-72
2022/06/03 04:25:42;;;;;;;7.97;4.22;;;;;;;;;;5062333;28;20054;-72
2022/06/03 04:28:17;;;;;;;12.95;4.40;;;;;;;;;;5074415;28;20056;-72
2022/06/03 04:30:57;;;;;;;7.28;4.47;;;;;;;;;;5074905;28;20040;-73
2022/06/03 04:36:04;;;;;;;;;;;;;;;;;;5507343;22;20104;-74
2022/06/03 04:38:49;;;;;;;8.23;4.20;;;;;;;;;;5014641;28;19917;-72
2022/06/03 04:41:18;;;;;;;10.65;4.50;;;;;;;;;;5015776;28;20077;-70
2022/06/03 04:43:50;;;;;;;10.73;4.47;;;;;;;;;;5016610;28;20384;-70
2022/06/03 04:46:35;;;;;;;10.18;4.43;;;;;;;;;;5016824;28;20033;-70
2022/06/03 04:49:16;;;;;;;12.55;4.53;;;;;;;;;;5016611;28;20104;-70
2022/06/03 04:52:01;;;;;;;6.90;4.38;;;;;;;;;;5016333;28;20045;-70
2022/06/03 04:54:30;;;;;;;7.90;4.75;;;;;;;;;;5016490;28;20034;-70
2022/06/03 04:57:08;;;;;;;6.18;3.92;;;;;;;;;;5015865;28;20119;-69
2022/06/03 04:59:37;;;;;;;5.18;4.10;;;;;;;;;;5015794;28;20042;-70
2022/06/03 05:02:19;;;;;;;13.57;5.00;;;;;;;;;;5016342;28;20491;-69
2022/06/03 05:04:48;;;;;;;8.27;4.45;;;;;;;;;;5016394;28;20060;-69
2022/06/03 05:07:17;;;;;;;8.18;4.53;;;;;;;;;;5016226;28;20045;-69
2022/06/03 05:09:46;;;;;;;8.07;3.90;;;;;;;;;;5016183;28;20034;-69
2022/06/03 05:12:31;;;;;;;7.55;4.10;;;;;;;;;;5016135;28;20044;-69
2022/06/03 05:15:16;;;;;;;9.02;4.10;;;;;;;;;;5015857;28;20115;-69
2022/06/03 05:17:59;;;;;;;7.53;4.20;;;;;;;;;;5015689;28;20041;-71
2022/06/03 05:20:38;;;;;;;6.50;4.00;;;;;;;;;;5015498;28;20377;-71
2022/06/03 05:23:22;;;;;;;7.30;4.25;;;;;;;;;;5016019;28;20069;-72
2022/06/03 05:26:07;;;;;;;9.40;4.00;;;;;;;;;;5016008;28;20096;-72
2022/06/03 05:28:33;;;;;;;10.35;4.10;;;;;;;;;;5015538;28;20116;-72
2022/06/03 05:31:17;;;;;;;8.90;4.00;;;;;;;;;;5015799;28;20045;-72
2022/06/03 05:33:43;;;;;;;9.88;4.18;;;;;;;;;;5015787;28;20041;-72
2022/06/03 05:36:30;;;;;;;10.30;3.80;;;;;;;;;;5015296;28;20061;-72
2022/06/03 05:39:16;;;;;;;9.98;4.57;;;;;;;;;;5001958;28;20052;-72
2022/06/03 05:44:51;;;;;;;10.05;3.88;;;;;;;;;;5014817;28;20041;-72
2022/06/03 05:47:35;;;;;;;9.02;3.75;;;;;;;;;;5015571;28;20100;-72
2022/06/03 05:50:13;;;;;;;6.00;3.80;;;;;;;;;;5015268;28;20066;-69
2022/06/03 05:52:48;;;;;;;11.25;4.03;;;;;;;;;;5015444;28;20083;-69
2022/06/03 05:55:32;;;;;;;13.38;4.25;;;;;;;;;;5015291;28;20049;-69
2022/06/03 05:58:10;;;;;;;9.43;3.40;;;;;;;;;;5015241;28;20049;-69
2022/06/03 06:00:39;;;;;;;8.98;4.00;;;;;;;;;;5015182;28;20594;-69
2022/06/03 06:03:13;;;;;;;6.40;4.55;;;;;;;;;;5014688;28;20048;-69
2022/06/03 06:05:48;;;;;;;7.13;3.63;;;;;;;;;;5015126;28;20158;-69
2022/06/03 06:08:32;;;;;;;11.52;4.50;;;;;;;;;;5015007;28;20077;-69
2022/06/03 06:11:04;;;;;;;9.27;3.30;;;;;;;;;;5014797;28;20038;-69
2022/06/03 06:13:46;;;;;;;8.52;3.85;;;;;;;;;;5015143;28;20530;-69
2022/06/03 06:16:44;;;;;;;7.57;3.65;;;;;;;;;;5014883;28;20044;-70
2022/06/03 06:19:10;;;;;;;11.65;3.90;;;;;;;;;;4971201;28;20064;-70
2022/06/03 06:21:41;;;;;;;11.98;3.72;;;;;;;;;;5014507;28;20111;-70
2022/06/03 06:24:20;;;;;;;13.60;4.50;;;;;;;;;;5009794;28;20042;-69
2022/06/03 06:27:08;;;;;;;9.02;3.83;;;;;;;;;;5007193;28;20057;-70
2022/06/03 06:29:53;;;;;;;14.05;3.60;;;;;;;;;;5033751;28;20037;-70
2022/06/03 06:32:22;;;;;;;10.68;3.47;;;;;;;;;;5021215;28;20117;-69
2022/06/03 06:35:02;;;;;;;11.45;3.15;;;;;;;;;;5003888;28;20045;-70
2022/06/03 06:37:47;;;;;;;8.93;3.10;;;;;;;;;;5005338;28;20508;-70
2022/06/03 06:40:32;;;;;;;8.35;3.17;;;;;;;;;;5013411;28;20053;-70
2022/06/03 06:43:13;;;;;;;8.00;3.50;;;;;;;;;;5001451;28;20092;-70
2022/06/03 06:45:49;;;;;;;8.88;3.00;;;;;;;;;;5033702;28;20049;-70
2022/06/03 06:48:15;;;;;;;9.75;3.17;;;;;;;;;;5024305;28;20053;-70
2022/06/03 06:50:52;;;;;;;9.18;2.90;;;;;;;;;;5003208;28;20497;-70
2022/06/03 06:53:25;;;;;;;7.13;3.50;;;;;;;;;;5012355;28;20042;-69
2022/06/03 06:55:56;;;;;;;11.65;3.17;;;;;;;;;;5034150;28;20504;-69
2022/06/03 06:58:42;;;;;;;6.25;3.20;;;;;;;;;;5022907;28;20041;-70
2022/06/03 07:01:09;;;;;;;8.63;3.88;;;;;;;;;;5025984;28;20167;-69
2022/06/03 07:03:38;;;;;;;10.93;3.60;;;;;;;;;;5014413;28;20042;-69
2022/06/03 07:06:07;;;;;;;9.52;3.55;;;;;;;;;;5021036;28;20049;-73
2022/06/03 07:08:41;;;;;;;9.40;3.40;;;;;;;;;;5012994;28;20389;-70
2022/06/03 07:11:12;;;;;;;7.32;3.22;;;;;;;;;;5029570;28;20042;-70
2022/06/03 07:13:38;;;;;;;8.55;3.60;;;;;;;;;;5033778;28;20060;-70
2022/06/03 07:16:14;;;;;;;10.50;3.60;;;;;;;;;;5033290;28;20038;-70
2022/06/03 07:21:42;;;;;;;7.20;3.75;;;;;;;;;;4994162;28;20048;-70
2022/06/03 07:24:13;;;;;;;7.90;3.65;;;;;;;;;;4995629;28;20358;-70
2022/06/03 07:26:46;;;;;;;10.52;3.70;;;;;;;;;;4997851;28;20497;-70
2022/06/03 07:29:39;;;;;;;8.35;3.80;;;;;;;;;;5001743;28;20052;-70
2022/06/03 07:32:12;;;;;;;9.88;3.90;;;;;;;;;;4999844;28;20152;-70
2022/06/03 07:34:52;;;;;;;9.07;3.90;;;;;;;;;;5017478;28;20044;-70
2022/06/03 07:37:24;;;;;;;8.60;4.07;;;;;;;;;;5018211;28;20050;-70
2022/06/03 07:39:56;;;;;;;10.60;3.40;;;;;;;;;;5017469;28;20073;-70
2022/06/03 07:42:25;;;;;;;9.85;3.38;;;;;;;;;;5002558;28;20128;-70
2022/06/03 07:44:57;;;;;;;10.57;3.67;;;;;;;;;;5014186;28;20516;-70
2022/06/03 07:47:25;;;;;;;10.65;4.22;;;;;;;;;;5017157;28;20065;-70
2022/06/03 07:49:59;;;;;;;13.50;4.40;;;;;;;;;;5007351;28;20130;-70
2022/06/03 07:52:32;;;;;;;10.30;3.72;;;;;;;;;;5015830;28;20038;-69
2022/06/03 07:54:59;;;;;;;8.38;2.95;;;;;;;;;;5002676;28;20062;-70
2022/06/03 07:57:27;;;;;;;6.10;3.35;;;;;;;;;;5002275;28;20042;-69
2022/06/03 07:59:58;;;;;;;11.35;3.00;;;;;;;;;;4996861;28;20055;-70
2022/06/03 08:02:25;;;;;;;14.75;3.55;;;;;;;;;;4997244;28;20073;-70
2022/06/03 08:05:04;;;;;;;12.80;3.60;;;;;;;;;;4996779;28;20046;-69
2022/06/03 08:13:03;;;;;;;16.10;3.97;;;;;;;;;;4996777;28;20588;-70
2022/06/03 08:15:31;;;;;;;16.00;3.55;;;;;;;;;;4998057;28;20050;-70
2022/06/03 08:17:57;;;;;;;10.48;3.28;;;;;;;;;;5002616;28;20448;-70
2022/06/03 08:20:26;;;;;;;14.77;3.97;;;;;;;;;;5015150;28;20077;-70
2022/06/03 08:22:53;;;;;;;11.30;3.30;;;;;;;;;;5016268;28;20041;-70
2022/06/03 08:25:26;;;;;;;11.02;3.35;;;;;;;;;;5016629;28;20045;-70
2022/06/03 08:27:52;;;;;;;8.40;3.13;;;;;;;;;;5016391;28;20132;-70
2022/06/03 08:30:20;;;;;;;10.07;3.45;;;;;;;;;;5016615;28;20095;-70
2022/06/03 08:32:53;;;;;;;8.43;3.50;;;;;;;;;;5016332;28;20042;-70
2022/06/03 08:35:23;;;;;;;7.38;3.55;;;;;;;;;;5015759;28;20097;-70
2022/06/03 08:38:07;;;;;;;12.90;3.60;;;;;;;;;;5017273;28;20058;-70
2022/06/03 08:40:39;;;;;;;9.82;2.80;;;;;;;;;;5016834;28;20488;-70
2022/06/03 08:43:24;;;;;;;9.13;3.65;;;;;;;;;;5015831;28;20110;-70
2022/06/03 08:46:00;;;;;;;13.18;3.40;;;;;;;;;;5016143;28;20052;-70
2022/06/03 08:48:31;;;;;;;6.53;2.92;;;;;;;;;;5016294;28;20073;-70
2022/06/03 08:50:59;;;;;;;8.68;3.28;;;;;;;;;;5015485;28;20034;-70
2022/06/03 08:53:37;;;;;;;11.00;4.25;;;;;;;;;;5016225;28;20049;-70
2022/06/03 08:56:06;;;;;;;8.13;2.78;;;;;;;;;;5016455;28;20044;-70
2022/06/03 08:58:38;;;;;;;12.48;3.72;;;;;;;;;;5015739;28;20053;-70
2022/06/03 09:01:10;;;;;;;8.07;3.15;;;;;;;;;;5015778;28;20067;-70
2022/06/03 09:03:43;;;;;;;9.57;3.45;;;;;;;;;;5015785;28;20121;-70
2022/06/03 09:06:32;;;;;;;8.38;3.13;;;;;;;;;;5016069;28;20046;-70
2022/06/03 09:09:01;;;;;;;9.65;3.35;;;;;;;;;;4996650;28;20073;-70
2022/06/03 09:11:30;;;;;;;8.25;3.40;;;;;;;;;;5015891;28;20038;-70
2022/06/03 09:13:56;;;;;;;8.38;3.10;;;;;;;;;;5015858;28;20033;-70
2022/06/03 09:16:25;;;;;;;9.20;3.20;;;;;;;;;;5015601;28;20504;-70
2022/06/03 09:18:59;;;;;;;13.02;3.67;;;;;;;;;;5015357;28;20381;-70
2022/06/03 09:21:28;;;;;;;11.27;3.75;;;;;;;;;;5015675;28;20120;-70
2022/06/03 09:24:02;;;;;;;10.48;4.18;;;;;;;;;;5015375;28;20069;-70
2022/06/03 09:26:31;;;;;;;8.10;2.90;;;;;;;;;;5015851;28;20064;-70
2022/06/03 09:28:58;;;;;;;8.63;3.38;;;;;;;;;;5015463;28;20077;-70
2022/06/03 09:31:25;;;;;;;9.95;3.50;;;;;;;;;;5015178;28;20034;-70
2022/06/03 09:33:52;;;;;;;8.90;3.63;;;;;;;;;;5015137;28;20044;-70
2022/06/03 09:36:20;;;;;;;12.73;3.50;;;;;;;;;;5014937;28;20472;-70
2022/06/03 09:38:51;;;;;;;8.05;3.55;;;;;;;;;;5015069;28;20151;-70
2022/06/03 09:41:17;;;;;;;;;;;;;;;;;;5015959;28;20042;-70
2022/06/03 09:43:45;;;;;;;11.25;3.25;;;;;;;;;;5014481;28;20036;-70
2022/06/03 09:46:12;;;;;;;6.55;3.05;;;;;;;;;;5015132;28;20468;-70
2022/06/03 09:48:41;;;;;;;10.02;3.70;;;;;;;;;;5015234;28;20407;-70
2022/06/03 09:51:10;;;;;;;15.82;4.00;;;;;;;;;;5015108;28;20088;-70
2022/06/03 09:53:40;;;;;;;10.63;3.42;;;;;;;;;;5015086;28;20034;-70
2022/06/03 09:56:07;;;;;;;;;;;;;;;;;;5014984;28;20121;-70
2022/06/03 09:58:34;;;;;;;8.25;3.50;;;;;;;;;;5014622;28;19952;-70
2022/06/03 10:01:02;;;;;;;8.02;3.67;;;;;;;;;;5015034;28;20050;-70
2022/06/03 10:03:28;;;;;;;11.13;3.63;;;;;;;;;;5014951;28;20354;-70
2022/06/03 10:05:57;;;;;;;8.23;3.65;;;;;;;;;;5014816;28;20057;-70
2022/06/03 10:08:24;;;;;;;10.73;3.42;;;;;;;;;;5014613;28;20038;-70
2022/06/03 10:13:38;;;;;;;9.90;3.80;;;;;;;;;;5014457;28;20041;-70
2022/06/03 10:16:07;;;;;;;8.50;3.25;;;;;;;;;;5014517;28;20042;-70
2022/06/03 10:18:39;;;;;;;7.05;3.08;;;;;;;;;;5014448;28;20042;-69
2022/06/03 10:21:05;;;;;;;9.07;3.25;;;;;;;;;;5014665;28;20037;-70
2022/06/03 10:23:34;;;;;;;10.25;3.42;;;;;;;;;;5014454;28;20029;-70
2022/06/03 10:26:01;;;;;;;13.45;3.80;;;;;;;;;;5014919;28;20050;-70
2022/06/03 10:28:38;;;;;;;10.15;3.78;;;;;;;;;;5014769;28;20046;-70
2022/06/03 10:31:06;;;;;;;11.20;3.50;;;;;;;;;;5014685;28;20490;-70
2022/06/03 10:33:33;;;;;;;10.40;3.60;;;;;;;;;;5014428;28;20128;-70
2022/06/03 10:36:00;;;;;;;8.18;3.28;;;;;;;;;;5014460;28;20093;-70
2022/06/03 10:38:28;;;;;;;9.38;4.00;;;;;;;;;;5014844;28;20041;-70
2022/06/03 10:40:54;;;;;;;9.85;3.63;;;;;;;;;;5014860;28;20042;-70
2022/06/03 10:43:22;;;;;;;11.27;3.72;;;;;;;;;;5014656;28;20044;-70
2022/06/03 10:45:49;;;;;;;10.95;3.70;;;;;;;;;;5014863;28;20038;-70
2022/06/03 10:48:22;;;;;;;13.13;4.30;;;;;;;;;;5015337;28;20040;-72
2022/06/03 10:50:48;;;;;;;10.65;3.60;;;;;;;;;;5014401;28;20069;-70
2022/06/03 11:01:53;;;;;;;11.25;3.70;;;;;;;;;;5017817;28;20045;-70
2022/06/03 11:04:29;;;;;;;15.55;3.95;;;;;;;;;;5018778;28;20092;-70
2022/06/03 11:06:58;;;;;;;14.55;4.35;;;;;;;;;;5017916;28;20165;-70
2022/06/03 11:09:25;;;;;;;9.77;3.40;;;;;;;;;;5018181;28;20484;-70
2022/06/03 11:12:01;;;;;;;11.93;3.80;;;;;;;;;;5017820;28;20049;-70
2022/06/03 11:14:27;;;;;;;12.27;4.22;;;;;;;;;;5018393;28;20038;-70
2022/06/03 11:16:53;;;;;;;17.15;4.70;;;;;;;;;;5017933;28;20034;-70
2022/06/03 11:19:21;;;;;;;16.50;4.32;;;;;;;;;;5018220;28;20042;-70
2022/06/03 11:21:47;;;;;;;11.45;4.07;;;;;;;;;;5017725;28;20034;-70
2022/06/03 11:24:13;;;;;;;18.90;5.22;;;;;;;;;;5017782;28;20129;-70
2022/06/03 11:26:43;;;;;;;12.60;4.20;;;;;;;;;;5017717;28;20050;-70
2022/06/03 11:29:15;;;;;;;17.47;5.20;;;;;;;;;;5017870;28;20484;-70
2022/06/03 11:31:43;;;;;;;11.88;4.25;;;;;;;;;;5017148;28;20081;-71
2022/06/03 11:34:17;;;;;;;13.75;4.38;;;;;;;;;;5017409;28;20477;-71
2022/06/03 11:37:03;;;;;;;14.40;4.25;;;;;;;;;;5017169;28;20058;-71
2022/06/03 11:39:35;;;;;;;9.40;4.10;;;;;;;;;;5018450;28;20045;-70
2022/06/03 11:42:01;;;;;;;14.05;4.78;;;;;;;;;;5017292;28;20041;-71
2022/06/03 11:44:27;;;;;;;15.82;4.53;;;;;;;;;;5017537;28;20088;-71
2022/06/03 11:47:02;;;;;;;13.07;4.03;;;;;;;;;;5017449;28;20045;-71
2022/06/03 11:49:29;;;;;;;15.30;4.65;;;;;;;;;;5016835;28;20038;-71
2022/06/03 11:51:55;;;;;;;19.27;4.65;;;;;;;;;;5017119;28;20096;-71
2022/06/03 11:54:23;;;;;;;15.20;4.40;;;;;;;;;;5017062;28;20046;-70
2022/06/03 11:56:50;;;;;;;18.33;4.35;;;;;;;;;;5017229;28;20060;-71
2022/06/03 11:59:20;;;;;;;14.77;4.47;;;;;;;;;;5017115;28;20073;-71
2022/06/03 12:01:57;;;;;;;16.63;4.70;;;;;;;;;;5017197;28;20128;-71
2022/06/03 12:04:42;;;;;;;20.50;5.47;;;;;;;;;;5017207;28;20523;-71
2022/06/03 12:07:28;;;;;;;16.50;4.25;;;;;;;;;;5016572;28;20535;-71
2022/06/03 12:09:59;;;;;;;15.02;4.85;;;;;;;;;;5017001;28;20041;-71
2022/06/03 12:15:35;;;;;;;13.68;4.70;;;;;;;;;;5016480;28;20235;-70
2022/06/03 12:18:07;;;;;;;14.73;4.65;;;;;;;;;;5016745;28;20060;-71
2022/06/03 12:20:48;;;;;;;18.42;4.63;;;;;;;;;;5016399;28;20042;-71
2022/06/03 12:23:14;;;;;;;16.50;4.22;;;;;;;;;;5016518;28;20559;-70
2022/06/03 12:25:40;;;;;;;15.00;4.53;;;;;;;;;;5016146;28;20072;-71
2022/06/03 12:28:27;;;;;;;16.27;4.40;;;;;;;;;;5016726;28;20053;-71
2022/06/03 12:31:12;;;;;;;11.93;4.32;;;;;;;;;;5015222;28;20407;-71
2022/06/03 12:33:47;;;;;;;14.38;4.85;;;;;;;;;;5016374;28;20041;-71
2022/06/03 12:36:32;;;;;;;19.75;4.95;;;;;;;;;;5016323;28;20046;-71
2022/06/03 12:39:05;;;;;;;14.07;4.68;;;;;;;;;;5016459;28;20058;-71
2022/06/03 12:42:00;;;;;;;17.95;4.55;;;;;;;;;;5016624;28;20037;-71
2022/06/03 12:44:32;;;;;;;12.50;3.95;;;;;;;;;;5003486;28;20080;-71
2022/06/03 12:47:17;;;;;;;20.92;4.00;;;;;;;;;;5016635;28;20069;-71
2022/06/03 12:49:43;;;;;;;15.85;4.97;;;;;;;;;;5016421;28;20149;-70
2022/06/03 12:52:35;;;;;;;14.35;4.68;;;;;;;;;;5016274;28;20042;-71
2022/06/03 12:55:19;;;;;;;13.60;4.10;;;;;;;;;;5016978;28;20041;-71
2022/06/03 12:57:54;;;;;;;12.40;4.13;;;;;;;;;;5016763;28;20050;-71
2022/06/03 13:00:20;;;;;;;16.85;4.90;;;;;;;;;;5015936;28;20099;-71
2022/06/03 13:02:55;;;;;;;16.92;4.55;;;;;;;;;;5016800;28;20465;-71
2022/06/03 13:05:40;;;;;;;20.45;5.28;;;;;;;;;;5016354;28;20120;-70
2022/06/03 13:08:29;;;;;;;15.30;4.70;;;;;;;;;;5016189;28;20064;-71
2022/06/03 13:10:55;;;;;;;12.75;4.30;;;;;;;;;;5015903;28;20076;-71
2022/06/03 13:13:37;;;;;;;15.45;4.63;;;;;;;;;;5015970;28;20034;-71
2022/06/03 13:16:22;;;;;;;23.23;4.70;;;;;;;;;;5015838;28;20080;-71
2022/06/03 13:18:55;;;;;;;16.35;4.85;;;;;;;;;;5015688;28;20046;-71
2022/06/03 13:21:24;;;;;;;21.30;5.05;;;;;;;;;;5015570;28;20468;-71
2022/06/03 13:23:54;;;;;;;14.15;4.78;;;;;;;;;;5015826;28;20030;-71
2022/06/03 13:26:23;;;;;;;20.92;5.10;;;;;;;;;;5015963;28;20041;-71
2022/06/03 13:28:56;;;;;;;15.13;4.72;;;;;;;;;;5016304;28;20381;-71
2022/06/03 13:31:26;;;;;;;16.88;5.00;;;;;;;;;;5015811;28;20045;-71
2022/06/03 13:34:08;;;;;;;16.20;5.07;;;;;;;;;;5015563;28;20038;-71
2022/06/03 13:36:34;;;;;;;17.98;4.78;;;;;;;;;;5015284;28;20062;-71
2022/06/03 13:39:00;;;;;;;21.38;4.72;;;;;;;;;;5015345;28;20223;-71
2022/06/03 13:44:42;;;;;;;14.48;4.47;;;;;;;;;;5015375;28;20099;-71
2022/06/03 13:47:30;;;;;;;19.13;4.53;;;;;;;;;;5025709;28;20052;-71
2022/06/03 13:50:19;;;;;;;18.90;4.43;;;;;;;;;;5006353;28;20042;-71
2022/06/03 13:52:48;;;;;;;16.63;4.25;;;;;;;;;;4989523;28;20515;-72
2022/06/03 13:55:19;;;;;;;17.42;4.45;;;;;;;;;;4995033;28;20050;-71
2022/06/03 13:57:51;;;;;;;15.05;4.15;;;;;;;;;;4993658;28;20046;-71
2022/06/03 14:00:29;;;;;;;17.58;4.47;;;;;;;;;;4994718;28;20046;-71
2022/06/03 14:03:06;;;;;;;16.27;4.13;;;;;;;;;;4994839;28;20046;-71
2022/06/03 14:05:43;;;;;;;15.77;3.83;;;;;;;;;;4994095;28;20069;-72
2022/06/03 14:08:41;;;;;;;15.18;4.22;;;;;;;;;;4994852;28;20050;-71
2022/06/03 14:11:34;;;;;;;15.48;4.30;;;;;;;;;;4971119;28;20069;-71
2022/06/03 14:14:09;;;;;;;16.55;4.45;;;;;;;;;;4991653;28;20053;-71
2022/06/03 14:16:46;;;;;;;17.42;4.63;;;;;;;;;;4994742;28;20046;-71
2022/06/03 14:19:12;;;;;;;16.77;4.07;;;;;;;;;;4993323;28;20061;-71
2022/06/03 14:21:38;;;;;;;14.35;3.88;;;;;;;;;;4994560;28;20489;-71
2022/06/03 14:24:07;;;;;;;18.38;4.22;;;;;;;;;;4994048;28;20112;-71
2022/06/03 14:26:53;;;;;;;14.70;4.05;;;;;;;;;;5002505;28;20396;-72
2022/06/03 14:29:38;;;;;;;13.93;4.10;;;;;;;;;;5006342;28;20070;-70
2022/06/03 14:32:09;;;;;;;11.45;3.70;;;;;;;;;;5024295;28;20121;-71
2022/06/03 14:34:39;;;;;;;17.52;3.97;;;;;;;;;;5023085;28;20076;-71
2022/06/03 14:37:07;;;;;;;15.05;4.20;;;;;;;;;;5017123;28;20432;-71
2022/06/03 14:39:36;;;;;;;13.82;3.67;;;;;;;;;;5017271;28;20054;-71
2022/06/03 14:42:05;;;;;;;14.38;3.85;;;;;;;;;;5008532;28;20041;-71
2022/06/03 14:44:32;;;;;;;14.80;3.95;;;;;;;;;;5018543;28;20125;-71
2022/06/03 14:47:12;;;;;;;10.48;3.58;;;;;;;;;;5012441;28;20050;-72
2022/06/03 14:49:39;;;;;;;;;;;;;;;;;;5018665;28;20045;-71
2022/06/03 14:52:10;;;;;;;16.25;4.05;;;;;;;;;;5006715;28;19956;-71
2022/06/03 14:54:39;;;;;;;14.23;3.47;;;;;;;;;;5004255;28;20025;-72
2022/06/03 14:57:07;;;;;;;15.55;3.58;;;;;;;;;;5009389;28;20203;-72
2022/06/03 14:59:36;;;;;;;13.93;3.60;;;;;;;;;;5009818;28;20053;-73
2022/06/03 15:02:16;;;;;;;14.13;3.53;;;;;;;;;;5002418;28;20075;-72
2022/06/03 15:04:45;;;;;;;14.85;3.65;;;;;;;;;;5005822;28;20074;-72
2022/06/03 15:07:19;;;;;;;14.07;3.53;;;;;;;;;;4995889;28;20558;-72
2022/06/03 15:09:48;;;;;;;17.83;3.22;;;;;;;;;;5011373;28;20128;-72
2022/06/03 15:12:20;;;;;;;16.25;3.88;;;;;;;;;;5009811;28;20034;-72
2022/06/03 15:14:47;;;;;;;11.35;3.40;;;;;;;;;;5013756;28;20038;-72
2022/06/03 15:17:14;;;;;;;11.68;3.10;;;;;;;;;;5007903;28;20046;-72
2022/06/03 15:19:52;;;;;;;11.95;3.42;;;;;;;;;;5003328;28;20552;-72
2022/06/03 15:22:25;;;;;;;16.52;3.17;;;;;;;;;;5010522;28;20034;-71
2022/06/03 15:24:59;;;;;;;16.38;3.38;;;;;;;;;;5011739;28;20556;-72
2022/06/03 15:27:28;;;;;;;13.88;3.22;;;;;;;;;;5003648;28;20038;-71
2022/06/03 15:29:54;;;;;;;16.17;3.95;;;;;;;;;;5002859;28;20049;-72
2022/06/03 15:32:20;;;;;;;9.90;3.47;;;;;;;;;;5013261;28;20410;-72
2022/06/03 15:34:46;;;;;;;18.02;4.15;;;;;;;;;;5026529;28;20451;-74
2022/06/03 15:37:13;;;;;;;13.85;3.60;;;;;;;;;;5029386;28;20479;-73
2022/06/03 15:39:39;;;;;;;17.10;3.65;;;;;;;;;;5026930;28;20045;-73
2022/06/03 15:42:23;;;;;;;13.75;4.07;;;;;;;;;;5036466;28;20041;-73
2022/06/03 15:44:50;;;;;;;14.65;3.72;;;;;;;;;;5041054;28;20044;-73
2022/06/03 15:47:23;;;;;;;16.23;3.35;;;;;;;;;;5036801;28;20048;-73
2022/06/03 15:50:08;;;;;;;10.13;3.38;;;;;;;;;;5012102;28;20065;-73
2022/06/03 15:52:55;;;;;;;18.65;3.30;;;;;;;;;;5027770;28;20040;-72
2022/06/03 15:55:38;;;;;;;11.15;3.65;;;;;;;;;;5009337;28;20391;-74